createdAt,value
2023-01-19T00:02:12.294Z,1.96
2023-01-19T00:07:14.410Z,2.00
2023-01-19T00:12:15.980Z,2.04
2023-01-19T00:17:19.284Z,2.06
2023-01-19T00:22:20.844Z,2.10
2023-01-19T00:27:22.401Z,2.11
2023-01-19T00:32:23.893Z,2.10
2023-01-19T00:37:25.411Z,2.13
2023-01-19T00:42:44.778Z,2.15
2023-01-19T00:47:48.107Z,2.14
2023-01-19T00:52:49.958Z,2.14
2023-01-19T00:57:51.837Z,2.13
2023-01-19T01:02:54.408Z,2.10
2023-01-19T01:07:56.146Z,2.04
2023-01-19T01:12:59.082Z,1.92
2023-01-19T01:18:00.876Z,1.85
2023-01-19T01:23:03.669Z,1.86
2023-01-19T01:28:08.684Z,1.89
2023-01-19T01:33:11.895Z,1.96
2023-01-19T01:38:13.391Z,2.06
2023-01-19T01:43:18.066Z,2.05
2023-01-19T01:48:30.828Z,2.08
2023-01-19T01:53:34.794Z,2.11
2023-01-19T01:58:38.898Z,2.14
2023-01-19T02:03:40.563Z,2.13
2023-01-19T02:09:11.062Z,2.14
2023-01-19T02:14:12.547Z,2.17
2023-01-19T02:19:19.954Z,2.17
2023-01-19T02:24:21.890Z,2.14
2023-01-19T02:29:26.225Z,2.09
2023-01-19T02:34:28.275Z,2.08
2023-01-19T02:39:33.711Z,2.03
2023-01-19T02:44:37.535Z,1.96
2023-01-19T02:49:39.036Z,1.90
2023-01-19T02:54:58.618Z,1.86
2023-01-19T03:00:28.160Z,1.87
2023-01-19T03:05:41.842Z,1.92
2023-01-19T03:11:03.607Z,1.93
2023-01-19T03:16:07.368Z,1.94
2023-01-19T03:21:11.541Z,1.93
2023-01-19T03:26:19.727Z,1.97
2023-01-19T03:31:26.418Z,2.01
2023-01-19T03:36:50.758Z,2.04
2023-01-19T03:41:57.387Z,2.04
2023-01-19T03:47:00.364Z,2.01
2023-01-19T03:52:02.168Z,1.96
2023-01-19T03:57:03.853Z,1.92
2023-01-19T04:02:05.416Z,1.88
2023-01-19T04:07:07.001Z,1.83
2023-01-19T04:12:09.151Z,1.85
2023-01-19T04:17:11.145Z,1.89
2023-01-19T04:22:12.927Z,1.92
2023-01-19T04:27:16.665Z,1.95
2023-01-19T04:32:18.707Z,1.95
2023-01-19T04:37:20.261Z,1.93
2023-01-19T04:42:22.354Z,1.96
2023-01-19T04:47:23.860Z,1.96
2023-01-19T04:52:25.767Z,1.93
2023-01-19T04:57:27.422Z,1.91
2023-01-19T05:02:29.046Z,1.87
2023-01-19T05:07:31.058Z,1.86
2023-01-19T05:12:34.297Z,1.81
2023-01-19T05:17:36.605Z,1.77
2023-01-19T05:22:39.220Z,1.74
2023-01-19T05:27:41.157Z,1.72
2023-01-19T05:32:42.846Z,1.71
2023-01-19T05:37:44.549Z,1.71
2023-01-19T05:42:46.592Z,1.72
2023-01-19T05:47:48.363Z,1.72
2023-01-19T05:52:49.854Z,1.67
2023-01-19T05:57:51.914Z,1.64
2023-01-19T06:02:54.037Z,1.60
2023-01-19T06:07:57.611Z,1.56
2023-01-19T06:12:59.579Z,1.52
2023-01-19T06:18:01.339Z,1.52
2023-01-19T06:23:04.018Z,1.54
2023-01-19T06:28:05.689Z,1.54
2023-01-19T06:33:07.188Z,1.50
2023-01-19T06:38:08.681Z,1.50
2023-01-19T06:43:11.681Z,1.51
2023-01-19T06:48:13.196Z,1.49
2023-01-19T06:53:16.801Z,1.49
2023-01-19T06:58:18.328Z,1.50
2023-01-19T07:03:22.764Z,1.54
2023-01-19T07:08:24.375Z,1.61
2023-01-19T07:13:27.342Z,1.66
2023-01-19T07:18:29.307Z,1.72
2023-01-19T07:23:30.863Z,1.82
2023-01-19T07:28:33.002Z,1.93
2023-01-19T07:33:34.555Z,1.99
2023-01-19T07:38:36.095Z,2.05
2023-01-19T07:43:38.339Z,2.12
2023-01-19T07:48:39.903Z,2.19
2023-01-19T07:53:42.230Z,2.28
2023-01-19T07:58:44.286Z,2.33
2023-01-19T08:03:48.662Z,2.39
2023-01-19T08:08:50.712Z,2.51
2023-01-19T08:13:52.374Z,2.62
2023-01-19T08:18:53.882Z,2.68
2023-01-19T08:23:58.118Z,2.75
2023-01-19T08:29:02.680Z,2.73
2023-01-19T08:34:04.227Z,2.70
2023-01-19T08:39:06.266Z,2.85
2023-01-19T08:44:07.794Z,2.88
2023-01-19T08:49:09.913Z,2.97
2023-01-19T08:54:11.503Z,3.08
2023-01-19T08:59:14.170Z,3.20
2023-01-19T09:04:15.911Z,3.30
2023-01-19T09:09:17.707Z,3.33
2023-01-19T09:14:19.592Z,3.24
2023-01-19T09:19:21.602Z,3.21
2023-01-19T09:24:23.188Z,3.16
2023-01-19T09:29:24.660Z,3.18
2023-01-19T09:34:26.562Z,3.21
2023-01-19T09:39:28.190Z,3.32
2023-01-19T09:44:34.561Z,3.47
2023-01-19T09:49:41.509Z,3.51
2023-01-19T09:54:56.339Z,3.54
2023-01-19T09:59:59.609Z,3.52
2023-01-19T10:05:05.232Z,3.50
2023-01-19T10:10:32.617Z,3.48
2023-01-19T10:16:15.906Z,3.63
2023-01-19T10:21:28.308Z,3.78
2023-01-19T10:26:47.486Z,3.80
2023-01-19T10:31:53.075Z,3.70
2023-01-19T10:37:13.264Z,3.75
2023-01-19T10:42:17.332Z,3.89
2023-01-19T10:47:21.323Z,3.98
2023-01-19T10:52:34.307Z,4.06
2023-01-19T10:57:41.007Z,4.15
2023-01-19T11:02:50.811Z,4.18
2023-01-19T11:07:52.555Z,4.16
2023-01-19T11:13:03.621Z,4.05
2023-01-19T11:18:06.950Z,4.03
2023-01-19T11:23:29.669Z,4.04
2023-01-19T11:28:42.014Z,3.93
2023-01-19T11:33:53.810Z,3.80
2023-01-19T11:39:00.545Z,3.77
2023-01-19T11:44:20.745Z,3.65
2023-01-19T11:49:33.846Z,3.55
2023-01-19T12:00:17.550Z,3.56
2023-01-19T12:05:21.425Z,3.51
2023-01-19T12:10:28.375Z,3.39
2023-01-19T12:15:38.974Z,3.31
2023-01-19T12:20:46.339Z,3.26
2023-01-19T12:26:06.833Z,3.22
2023-01-19T12:31:09.242Z,3.20
2023-01-19T12:36:16.884Z,3.10
2023-01-19T12:41:38.715Z,3.06
2023-01-19T12:46:42.897Z,3.10
2023-01-19T12:51:45.808Z,3.07
2023-01-19T12:56:47.352Z,3.07
2023-01-19T13:02:20.015Z,3.10
2023-01-19T13:07:21.553Z,3.14
2023-01-19T13:12:25.269Z,3.21
2023-01-19T13:17:32.042Z,3.18
2023-01-19T13:22:51.751Z,3.12
2023-01-19T13:27:54.018Z,3.13
2023-01-19T13:33:06.425Z,3.13
2023-01-19T13:38:14.180Z,3.15
2023-01-19T13:43:21.230Z,3.08
2023-01-19T13:48:24.807Z,2.97
2023-01-19T13:53:26.496Z,2.91
2023-01-19T13:58:29.288Z,2.88
2023-01-19T14:03:31.063Z,2.84
2023-01-19T14:08:33.867Z,2.83
2023-01-19T14:13:43.251Z,2.84
2023-01-19T14:18:45.049Z,2.89
2023-01-19T14:23:51.601Z,2.92
2023-01-19T14:28:53.326Z,2.93
2023-01-19T14:33:56.365Z,2.88
2023-01-19T14:39:01.594Z,2.84
2023-01-19T14:44:10.398Z,2.80
2023-01-19T14:49:41.988Z,2.78
2023-01-19T14:54:46.328Z,2.80
2023-01-19T14:59:49.761Z,2.81
2023-01-19T15:04:55.310Z,2.81
2023-01-19T15:09:59.815Z,2.85
2023-01-19T15:15:02.256Z,2.87
2023-01-19T15:20:04.087Z,2.82
2023-01-19T15:25:06.331Z,2.79
2023-01-19T15:30:27.780Z,2.74
2023-01-19T15:35:29.421Z,2.71
2023-01-19T15:40:31.784Z,2.66
2023-01-19T15:45:37.679Z,2.63
2023-01-19T15:50:42.338Z,2.59
2023-01-19T15:55:44.883Z,2.57
2023-01-19T16:00:54.394Z,2.53
2023-01-19T16:05:59.745Z,2.46
2023-01-19T16:11:09.002Z,2.40
2023-01-19T16:16:19.608Z,2.38
2023-01-19T16:21:21.280Z,2.40
2023-01-19T16:26:25.828Z,2.43
2023-01-19T16:31:28.889Z,2.42
2023-01-19T16:36:35.166Z,2.35
2023-01-19T16:41:37.117Z,2.29
2023-01-19T16:46:40.987Z,2.25
2023-01-19T16:51:43.194Z,2.28
2023-01-19T16:56:45.628Z,2.23
2023-01-19T17:01:48.109Z,2.15
2023-01-19T17:06:52.993Z,2.16
2023-01-19T17:11:55.067Z,2.15
2023-01-19T17:16:56.674Z,2.09
2023-01-19T17:21:58.189Z,2.06
2023-01-19T17:27:00.107Z,2.01
2023-01-19T17:32:01.666Z,1.98
2023-01-19T17:37:03.662Z,1.92
2023-01-19T17:42:05.202Z,1.86
2023-01-19T17:47:06.718Z,1.81
2023-01-19T17:52:08.248Z,1.81
2023-01-19T17:57:10.026Z,1.79
2023-01-19T18:02:11.941Z,1.75
2023-01-19T18:07:13.617Z,1.73
2023-01-19T18:12:16.108Z,1.69
2023-01-19T18:17:18.599Z,1.67
2023-01-19T18:22:20.214Z,1.62
2023-01-19T18:27:22.421Z,1.55
2023-01-19T18:32:25.781Z,1.49
2023-01-19T18:37:28.745Z,1.44
2023-01-19T18:42:30.537Z,1.37
2023-01-19T18:47:33.661Z,1.32
2023-01-19T18:52:35.236Z,1.32
2023-01-19T18:57:36.904Z,1.32
2023-01-19T19:02:40.012Z,1.28
2023-01-19T19:07:41.738Z,1.24
2023-01-19T19:12:43.613Z,1.22
2023-01-19T19:17:45.531Z,1.21
2023-01-19T19:22:47.498Z,1.17
2023-01-19T19:27:52.691Z,1.15
2023-01-19T19:32:56.268Z,1.14
2023-01-19T19:37:58.559Z,1.15
2023-01-19T19:43:00.134Z,1.13
2023-01-19T19:48:02.830Z,1.15
2023-01-19T19:53:04.338Z,1.16
2023-01-19T19:58:05.878Z,1.15
2023-01-19T20:03:13.435Z,1.10
2023-01-19T20:08:15.018Z,1.08
2023-01-19T20:13:19.335Z,1.10
2023-01-19T20:18:20.969Z,1.11
2023-01-19T20:23:22.570Z,1.10
2023-01-19T20:28:25.113Z,1.06
2023-01-19T20:33:26.596Z,1.04
2023-01-19T20:38:28.178Z,1.00
2023-01-19T20:43:31.173Z,1.00
2023-01-19T20:48:32.834Z,0.95
2023-01-19T20:53:35.270Z,0.95
2023-01-19T20:58:38.059Z,0.95
2023-01-19T21:03:40.131Z,0.98
2023-01-19T21:08:43.008Z,1.00
2023-01-19T21:13:44.838Z,1.03
2023-01-19T21:18:46.337Z,1.09
2023-01-19T21:23:48.255Z,1.15
2023-01-19T21:28:50.663Z,1.17
2023-01-19T21:33:53.945Z,1.17
2023-01-19T21:39:00.220Z,1.18
2023-01-19T21:44:02.619Z,1.17
2023-01-19T21:49:06.634Z,1.16
2023-01-19T21:54:08.318Z,1.12
2023-01-19T21:59:15.450Z,1.11
2023-01-19T22:04:16.987Z,1.09
2023-01-19T22:09:18.510Z,1.07
2023-01-19T22:14:20.009Z,0.99
2023-01-19T22:19:21.652Z,0.92
2023-01-19T22:24:23.433Z,0.89
2023-01-19T22:29:24.940Z,0.90
2023-01-19T22:34:26.484Z,0.94
2023-01-19T22:39:28.521Z,0.97
2023-01-19T22:44:30.594Z,0.95
2023-01-19T22:49:32.204Z,0.96
2023-01-19T22:54:33.878Z,0.94
2023-01-19T22:59:35.475Z,0.93
2023-01-19T23:04:37.206Z,0.90
2023-01-19T23:09:38.765Z,0.91
2023-01-19T23:14:40.434Z,0.90
2023-01-19T23:19:42.039Z,0.91
2023-01-19T23:24:43.516Z,0.91
2023-01-19T23:29:45.184Z,0.91
2023-01-19T23:34:48.545Z,0.90
2023-01-19T23:39:50.048Z,0.86
2023-01-19T23:44:52.101Z,0.88
2023-01-19T23:49:54.192Z,0.88
2023-01-19T23:54:56.303Z,0.86
2023-01-19T23:59:57.797Z,0.86
